createdAt,value
2018-05-03T00:00:00.056Z,1.10
2018-05-03T00:01:21.060Z,0.80
2018-05-03T00:02:00.108Z,1.00
2018-05-03T00:02:59.990Z,1.50
2018-05-03T00:04:21.022Z,1.10
2018-05-03T00:05:00.017Z,1.00
2018-05-03T00:06:20.991Z,0.90
2018-05-03T00:06:59.981Z,1.30
2018-05-03T00:08:00.006Z,1.00
2018-05-03T00:09:20.980Z,0.90
2018-05-03T00:09:59.976Z,0.80
2018-05-03T00:11:21.011Z,0.80
2018-05-03T00:11:59.973Z,1.10
2018-05-03T00:12:59.945Z,1.10
2018-05-03T00:14:20.941Z,1.30
2018-05-03T00:14:59.951Z,0.90
2018-05-03T00:16:20.940Z,0.90
2018-05-03T00:16:59.914Z,1.10
2018-05-03T00:17:59.946Z,1.20
2018-05-03T00:19:20.914Z,0.80
2018-05-03T00:19:59.921Z,0.70
2018-05-03T00:21:20.912Z,0.80
2018-05-03T00:21:59.897Z,1.10
2018-05-03T00:22:59.909Z,1.10
2018-05-03T00:24:20.899Z,0.80
2018-05-03T00:24:59.904Z,0.80
2018-05-03T00:26:20.891Z,1.00
2018-05-03T00:26:59.885Z,0.70
2018-05-03T00:27:59.867Z,0.90
2018-05-03T00:29:20.875Z,0.80
2018-05-03T00:29:59.853Z,0.70
2018-05-03T00:31:20.877Z,0.70
2018-05-03T00:31:59.855Z,1.10
2018-05-03T00:32:59.847Z,0.80
2018-05-03T00:34:20.861Z,0.80
2018-05-03T00:34:59.837Z,0.80
2018-05-03T00:36:20.831Z,0.80
2018-05-03T00:36:59.865Z,1.00
2018-05-03T00:37:59.822Z,0.90
2018-05-03T00:39:20.826Z,0.80
2018-05-03T00:39:59.810Z,0.90
2018-05-03T00:41:20.819Z,0.80
2018-05-03T00:41:59.801Z,0.90
2018-05-03T00:42:59.816Z,0.90
2018-05-03T00:44:20.811Z,1.10
2018-05-03T00:44:59.760Z,0.90
2018-05-03T00:46:20.800Z,0.80
2018-05-03T00:46:59.765Z,1.20
2018-05-03T00:47:59.780Z,1.10
2018-05-03T00:49:20.770Z,1.00
2018-05-03T00:49:59.749Z,0.80
2018-05-03T00:51:20.751Z,1.10
2018-05-03T00:51:59.756Z,0.80
2018-05-03T00:52:59.736Z,0.80
2018-05-03T00:54:20.743Z,0.80
2018-05-03T00:54:59.706Z,0.90
2018-05-03T00:56:20.724Z,0.70
2018-05-03T00:56:59.701Z,1.00
2018-05-03T00:57:59.734Z,0.80
2018-05-03T00:59:20.719Z,0.90
2018-05-03T00:59:59.702Z,1.00
2018-05-03T01:01:20.706Z,0.90
2018-05-03T01:01:59.713Z,0.80
2018-05-03T01:02:59.704Z,0.90
2018-05-03T01:04:20.697Z,0.80
2018-05-03T01:04:59.685Z,1.00
2018-05-03T01:06:20.680Z,0.80
2018-05-03T01:06:59.649Z,0.90
2018-05-03T01:07:59.669Z,0.80
2018-05-03T01:09:20.691Z,0.70
2018-05-03T01:09:59.618Z,0.90
2018-05-03T01:11:20.659Z,0.90
2018-05-03T01:11:59.661Z,0.70
2018-05-03T01:12:59.630Z,1.10
2018-05-03T01:14:20.632Z,0.80
2018-05-03T01:14:59.618Z,0.90
2018-05-03T01:16:20.620Z,0.80
2018-05-03T01:16:59.619Z,0.90
2018-05-03T01:17:59.626Z,0.90
2018-05-03T01:19:20.631Z,0.80
2018-05-03T01:19:59.586Z,0.80
2018-05-03T01:21:20.596Z,0.80
2018-05-03T01:21:59.573Z,0.70
2018-05-03T01:22:59.572Z,0.70
2018-05-03T01:24:20.596Z,0.80
2018-05-03T01:24:59.603Z,0.70
2018-05-03T01:26:20.594Z,0.90
2018-05-03T01:26:59.601Z,0.90
2018-05-03T01:27:59.548Z,0.80
2018-05-03T01:29:20.577Z,1.00
2018-05-03T01:29:59.533Z,1.00
2018-05-03T01:31:20.550Z,0.80
2018-05-03T01:31:59.510Z,0.90
2018-05-03T01:32:59.538Z,1.20
2018-05-03T01:34:20.520Z,0.70
2018-05-03T01:34:59.487Z,0.80
2018-05-03T01:36:20.510Z,0.80
2018-05-03T01:36:59.496Z,0.80
2018-05-03T01:37:59.502Z,0.70
2018-05-03T01:39:20.498Z,0.80
2018-05-03T01:39:59.446Z,0.70
2018-05-03T01:41:20.476Z,0.90
2018-05-03T01:41:59.456Z,0.80
2018-05-03T01:42:59.461Z,0.80
2018-05-03T01:44:20.465Z,0.80
2018-05-03T01:44:59.441Z,0.70
2018-05-03T01:46:20.474Z,0.80
2018-05-03T01:46:59.453Z,0.60
2018-05-03T01:47:59.445Z,0.80
2018-05-03T01:49:20.451Z,0.90
2018-05-03T01:49:59.440Z,0.70
2018-05-03T01:51:20.441Z,0.80
2018-05-03T01:51:59.457Z,0.80
2018-05-03T01:52:59.408Z,1.00
2018-05-03T01:54:20.419Z,0.90
2018-05-03T01:54:59.416Z,0.70
2018-05-03T01:56:20.422Z,1.00
2018-05-03T01:56:59.381Z,0.80
2018-05-03T01:57:59.421Z,1.00
2018-05-03T01:59:20.402Z,0.80
2018-05-03T01:59:59.393Z,0.70
2018-05-03T02:01:20.358Z,0.90
2018-05-03T02:01:59.382Z,0.60
2018-05-03T02:02:59.368Z,0.90
2018-05-03T02:04:20.374Z,0.80
2018-05-03T02:04:59.357Z,0.80
2018-05-03T02:06:20.373Z,0.80
2018-05-03T02:06:59.334Z,0.80
2018-05-03T02:07:59.323Z,0.70
2018-05-03T02:09:20.327Z,0.90
2018-05-03T02:09:59.317Z,0.90
2018-05-03T02:11:20.364Z,0.80
2018-05-03T02:11:59.313Z,0.90
2018-05-03T02:12:59.317Z,0.80
2018-05-03T02:14:20.320Z,0.90
2018-05-03T02:14:59.306Z,0.70
2018-05-03T02:16:20.283Z,0.80
2018-05-03T02:16:59.295Z,0.70
2018-05-03T02:17:59.279Z,0.70
2018-05-03T02:19:20.267Z,0.80
2018-05-03T02:19:59.284Z,0.80
2018-05-03T02:21:20.235Z,0.80
2018-05-03T02:21:59.261Z,0.60
2018-05-03T02:22:59.264Z,0.80
2018-05-03T02:24:20.273Z,0.80
2018-05-03T02:24:59.231Z,0.70
2018-05-03T02:26:20.237Z,0.80
2018-05-03T02:26:59.222Z,0.70
2018-05-03T02:27:59.245Z,1.00
2018-05-03T02:29:20.236Z,1.10
2018-05-03T02:29:59.232Z,0.90
2018-05-03T02:31:20.216Z,0.80
2018-05-03T02:31:59.236Z,0.90
2018-05-03T02:32:59.216Z,0.80
2018-05-03T02:34:20.194Z,0.90
2018-05-03T02:34:59.173Z,0.60
2018-05-03T02:36:20.189Z,0.60
2018-05-03T02:36:59.159Z,0.60
2018-05-03T02:37:59.149Z,0.70
2018-05-03T02:39:20.188Z,0.70
2018-05-03T02:39:59.167Z,0.80
2018-05-03T02:41:20.143Z,0.70
2018-05-03T02:41:59.159Z,0.80
2018-05-03T02:42:59.179Z,0.80
2018-05-03T02:44:20.143Z,0.90
2018-05-03T02:44:59.129Z,0.80
2018-05-03T02:46:20.136Z,0.80
2018-05-03T02:46:59.113Z,0.80
2018-05-03T02:47:59.124Z,0.60
2018-05-03T02:49:20.129Z,0.60
2018-05-03T02:49:59.108Z,0.70
2018-05-03T02:51:20.124Z,0.80
2018-05-03T02:51:59.088Z,0.70
2018-05-03T02:52:59.059Z,0.80
2018-05-03T02:54:20.081Z,0.80
2018-05-03T02:54:59.074Z,0.90
2018-05-03T02:56:20.125Z,0.80
2018-05-03T02:56:59.063Z,0.70
2018-05-03T02:57:59.073Z,1.40
2018-05-03T02:59:20.060Z,0.80
2018-05-03T02:59:59.047Z,1.00
2018-05-03T03:01:20.036Z,0.70
2018-05-03T03:01:59.038Z,0.80
2018-05-03T03:02:59.023Z,0.70
2018-05-03T03:04:20.034Z,0.90
2018-05-03T03:04:59.008Z,2.50
2018-05-03T03:06:20.034Z,0.80
2018-05-03T03:06:58.988Z,1.10
2018-05-03T03:07:59.000Z,0.80
2018-05-03T03:09:20.026Z,0.80
2018-05-03T03:09:59.003Z,0.90
2018-05-03T03:11:19.999Z,0.70
2018-05-03T03:11:58.980Z,0.80
2018-05-03T03:12:58.989Z,0.70
2018-05-03T03:14:19.986Z,0.60
2018-05-03T03:14:58.977Z,0.70
2018-05-03T03:16:19.953Z,0.80
2018-05-03T03:16:58.958Z,0.70
2018-05-03T03:17:58.962Z,0.70
2018-05-03T03:19:19.945Z,1.00
2018-05-03T03:19:58.953Z,0.80
2018-05-03T03:21:19.944Z,0.60
2018-05-03T03:21:58.927Z,0.80
2018-05-03T03:22:58.929Z,0.70
2018-05-03T03:24:19.939Z,0.80
2018-05-03T03:24:58.910Z,0.80
2018-05-03T03:26:19.928Z,0.80
2018-05-03T03:26:58.917Z,0.70
2018-05-03T03:27:58.884Z,0.80
2018-05-03T03:29:19.901Z,0.80
2018-05-03T03:29:58.886Z,1.00
2018-05-03T03:31:19.896Z,0.80
2018-05-03T03:31:58.868Z,0.90
2018-05-03T03:32:58.889Z,0.70
2018-05-03T03:34:19.888Z,0.70
2018-05-03T03:34:58.840Z,0.80
2018-05-03T03:36:19.895Z,0.80
2018-05-03T03:36:58.850Z,0.70
2018-05-03T03:37:58.833Z,0.90
2018-05-03T03:39:19.854Z,0.70
2018-05-03T03:39:58.805Z,0.90
2018-05-03T03:41:19.835Z,0.70
2018-05-03T03:41:58.819Z,0.80
2018-05-03T03:42:58.824Z,0.60
2018-05-03T03:44:19.840Z,0.90
2018-05-03T03:44:58.809Z,0.90
2018-05-03T03:46:19.810Z,1.00
2018-05-03T03:46:58.785Z,0.70
2018-05-03T03:47:58.791Z,0.70
2018-05-03T03:49:19.765Z,0.80
2018-05-03T03:49:58.778Z,0.80
2018-05-03T03:51:19.775Z,0.80
2018-05-03T03:51:58.785Z,0.80
2018-05-03T03:52:58.750Z,0.70
2018-05-03T03:54:19.773Z,0.60
2018-05-03T03:54:58.758Z,0.80
2018-05-03T03:56:19.750Z,0.70
2018-05-03T03:56:58.730Z,0.80
2018-05-03T03:57:58.734Z,0.90
2018-05-03T03:59:19.733Z,0.70
2018-05-03T03:59:58.725Z,0.60
2018-05-03T04:01:19.717Z,0.70
2018-05-03T04:01:58.719Z,0.70
2018-05-03T04:02:58.695Z,0.70
2018-05-03T04:04:19.718Z,0.90
2018-05-03T04:04:58.693Z,0.80
2018-05-03T04:06:19.687Z,0.70
2018-05-03T04:06:58.690Z,0.80
2018-05-03T04:07:58.703Z,0.80
2018-05-03T04:09:19.701Z,0.80
2018-05-03T04:09:58.682Z,0.90
2018-05-03T04:11:19.687Z,0.80
2018-05-03T04:11:58.666Z,0.90
2018-05-03T04:12:58.663Z,0.80
2018-05-03T04:14:19.648Z,0.80
2018-05-03T04:14:58.672Z,0.80
2018-05-03T04:16:19.640Z,0.70
2018-05-03T04:16:58.638Z,0.80
2018-05-03T04:17:58.629Z,0.70
2018-05-03T04:19:19.605Z,0.90
2018-05-03T04:19:58.617Z,0.60
2018-05-03T04:21:19.657Z,0.60
2018-05-03T04:21:58.631Z,0.70
2018-05-03T04:22:58.629Z,0.90
2018-05-03T04:24:19.595Z,0.70
2018-05-03T04:24:58.592Z,0.70
2018-05-03T04:26:19.609Z,0.80
2018-05-03T04:26:58.590Z,0.80
2018-05-03T04:27:58.574Z,0.80
2018-05-03T04:29:19.545Z,0.80
2018-05-03T04:29:58.573Z,0.80
2018-05-03T04:31:19.578Z,0.80
2018-05-03T04:31:58.552Z,1.10
2018-05-03T04:32:58.552Z,0.70
2018-05-03T04:34:19.545Z,0.50
2018-05-03T04:34:58.516Z,0.70
2018-05-03T04:36:19.553Z,1.20
2018-05-03T04:36:58.516Z,0.70
2018-05-03T04:37:58.527Z,0.80
2018-05-03T04:39:19.535Z,0.80
2018-05-03T04:39:58.505Z,0.70
2018-05-03T04:41:19.510Z,0.80
2018-05-03T04:41:58.510Z,0.70
2018-05-03T04:42:58.515Z,0.80
2018-05-03T04:44:19.491Z,0.80
2018-05-03T04:44:58.516Z,0.90
2018-05-03T04:46:19.473Z,0.80
2018-05-03T04:46:58.527Z,0.70
2018-05-03T04:47:58.471Z,0.80
2018-05-03T04:49:19.470Z,0.90
2018-05-03T04:49:58.494Z,0.60
2018-05-03T04:51:19.470Z,0.70
2018-05-03T04:51:58.454Z,0.70
2018-05-03T04:52:58.475Z,0.70
2018-05-03T04:54:19.437Z,0.70
2018-05-03T04:54:58.436Z,0.80
2018-05-03T04:56:19.454Z,0.80
2018-05-03T04:56:58.411Z,0.90
2018-05-03T04:57:58.427Z,0.70
2018-05-03T04:59:19.420Z,0.70
2018-05-03T04:59:58.412Z,0.70
2018-05-03T05:01:19.409Z,0.90
2018-05-03T05:01:58.406Z,0.70
2018-05-03T05:02:58.407Z,0.70
2018-05-03T05:04:19.401Z,0.80
2018-05-03T05:04:58.365Z,0.70
2018-05-03T05:06:19.398Z,0.80
2018-05-03T05:06:58.382Z,0.50
2018-05-03T05:07:58.344Z,0.80
2018-05-03T05:09:19.338Z,0.80
2018-05-03T05:09:58.350Z,0.80
2018-05-03T05:11:19.329Z,0.80
2018-05-03T05:11:58.325Z,0.60
2018-05-03T05:12:58.326Z,0.70
2018-05-03T05:14:19.350Z,0.80
2018-05-03T05:14:58.332Z,0.70
2018-05-03T05:16:19.321Z,0.80
2018-05-03T05:16:58.313Z,1.30
2018-05-03T05:17:58.324Z,0.70
2018-05-03T05:19:19.307Z,0.70
2018-05-03T05:19:58.297Z,0.80
2018-05-03T05:21:19.307Z,0.70
2018-05-03T05:21:58.302Z,0.80
2018-05-03T05:22:58.299Z,0.90
2018-05-03T05:24:19.361Z,0.80
2018-05-03T05:24:58.265Z,0.70
2018-05-03T05:26:19.273Z,0.70
2018-05-03T05:26:58.277Z,0.70
2018-05-03T05:27:58.244Z,0.70
2018-05-03T05:29:19.265Z,0.80
2018-05-03T05:29:58.285Z,0.90
2018-05-03T05:31:19.262Z,0.90
2018-05-03T05:31:58.234Z,0.80
2018-05-03T05:32:58.241Z,0.80
2018-05-03T05:34:19.217Z,0.60
2018-05-03T05:34:58.225Z,0.80
2018-05-03T05:36:19.195Z,0.90
2018-05-03T05:36:58.216Z,0.70
2018-05-03T05:37:58.193Z,0.80
2018-05-03T05:39:19.180Z,0.70
2018-05-03T05:39:58.207Z,0.70
2018-05-03T05:41:19.172Z,0.80
2018-05-03T05:41:58.173Z,0.70
2018-05-03T05:42:58.156Z,0.60
2018-05-03T05:44:19.245Z,0.80
2018-05-03T05:44:58.185Z,0.80
2018-05-03T05:46:19.178Z,0.80
2018-05-03T05:46:58.139Z,0.60
2018-05-03T05:47:58.143Z,0.70
2018-05-03T05:49:19.131Z,0.90
2018-05-03T05:49:58.120Z,1.00
2018-05-03T05:51:19.218Z,0.80
2018-05-03T05:51:58.105Z,0.70
2018-05-03T05:52:58.127Z,0.70
2018-05-03T05:54:19.111Z,0.80
2018-05-03T05:54:58.102Z,0.80
2018-05-03T05:56:19.085Z,0.90
2018-05-03T05:56:58.111Z,1.00
2018-05-03T05:57:58.084Z,0.80
2018-05-03T05:59:19.104Z,1.60
2018-05-03T05:59:58.087Z,0.80
2018-05-03T06:01:19.063Z,1.00
2018-05-03T06:01:58.067Z,1.20
2018-05-03T06:02:58.072Z,0.80
2018-05-03T06:04:19.154Z,0.80
2018-05-03T06:04:58.067Z,0.90
2018-05-03T06:06:19.051Z,0.70
2018-05-03T06:06:58.061Z,0.80
2018-05-03T06:07:58.053Z,0.80
2018-05-03T06:09:19.063Z,1.30
2018-05-03T06:09:58.018Z,1.40
2018-05-03T06:11:19.043Z,0.80
2018-05-03T06:11:58.042Z,0.80
2018-05-03T06:12:58.060Z,1.30
2018-05-03T06:14:19.018Z,1.10
2018-05-03T06:14:58.009Z,0.80
2018-05-03T06:16:18.997Z,1.40
2018-05-03T06:16:57.966Z,0.80
2018-05-03T06:17:57.968Z,1.10
2018-05-03T06:19:18.996Z,0.90
2018-05-03T06:19:58.022Z,1.10
2018-05-03T06:21:18.963Z,1.10
2018-05-03T06:21:57.961Z,1.10
2018-05-03T06:22:57.959Z,1.10
2018-05-03T06:24:19.031Z,1.30
2018-05-03T06:24:57.976Z,1.90
2018-05-03T06:26:18.936Z,1.60
2018-05-03T06:26:57.961Z,1.70
2018-05-03T06:27:57.912Z,1.50
2018-05-03T06:29:18.923Z,1.10
2018-05-03T06:29:57.902Z,1.00
2018-05-03T06:31:18.933Z,1.40
2018-05-03T06:31:57.912Z,1.20
2018-05-03T06:32:57.902Z,1.20
2018-05-03T06:34:18.903Z,1.30
2018-05-03T06:34:57.897Z,1.30
2018-05-03T06:36:18.917Z,1.20
2018-05-03T06:36:57.867Z,1.00
2018-05-03T06:37:57.868Z,0.90
2018-05-03T06:39:18.873Z,1.30
2018-05-03T06:39:57.862Z,1.20
2018-05-03T06:41:18.848Z,1.20
2018-05-03T06:41:57.856Z,1.60
2018-05-03T06:42:57.834Z,1.40
2018-05-03T06:44:18.868Z,1.30
2018-05-03T06:44:57.833Z,1.40
2018-05-03T06:46:18.836Z,1.30
2018-05-03T06:46:57.823Z,1.30
2018-05-03T06:47:57.854Z,1.50
2018-05-03T06:49:18.853Z,1.30
2018-05-03T06:49:57.832Z,1.30
2018-05-03T06:51:18.819Z,1.20
2018-05-03T06:51:57.794Z,1.40
2018-05-03T06:52:57.818Z,1.80
2018-05-03T06:54:18.791Z,1.50
2018-05-03T06:54:57.789Z,1.10
2018-05-03T06:56:18.785Z,1.40
2018-05-03T06:56:57.760Z,1.40
2018-05-03T06:57:57.742Z,1.40
2018-05-03T06:59:18.749Z,1.00
2018-05-03T06:59:57.754Z,1.20
2018-05-03T07:01:18.777Z,1.50
2018-05-03T07:01:57.808Z,1.20
2018-05-03T07:02:57.758Z,1.60
2018-05-03T07:04:18.853Z,1.30
2018-05-03T07:04:57.747Z,1.30
2018-05-03T07:06:18.761Z,1.60
2018-05-03T07:06:57.728Z,1.40
2018-05-03T07:07:57.710Z,1.30
2018-05-03T07:09:18.737Z,1.20
2018-05-03T07:09:57.757Z,1.80
2018-05-03T07:11:18.754Z,1.40
2018-05-03T07:11:57.678Z,1.60
2018-05-03T07:12:57.719Z,1.20
2018-05-03T07:14:18.709Z,1.40
2018-05-03T07:14:57.695Z,1.40
2018-05-03T07:16:18.708Z,1.40
2018-05-03T07:16:57.700Z,1.30
2018-05-03T07:17:57.654Z,1.60
2018-05-03T07:19:18.682Z,1.40
2018-05-03T07:19:57.650Z,2.50
2018-05-03T07:21:18.667Z,1.90
2018-05-03T07:21:57.660Z,1.40
2018-05-03T07:22:57.678Z,1.50
2018-05-03T07:24:18.649Z,1.70
2018-05-03T07:24:57.653Z,1.80
2018-05-03T07:26:18.657Z,1.40
2018-05-03T07:26:57.678Z,1.40
2018-05-03T07:27:57.615Z,1.00
2018-05-03T07:29:18.657Z,1.90
2018-05-03T07:29:57.635Z,1.50
2018-05-03T07:31:18.633Z,1.80
2018-05-03T07:31:57.609Z,1.60
2018-05-03T07:32:57.658Z,1.60
2018-05-03T07:34:18.639Z,1.40
2018-05-03T07:34:57.597Z,1.90
2018-05-03T07:36:18.596Z,1.60
2018-05-03T07:36:57.599Z,1.60
2018-05-03T07:37:57.561Z,1.80
2018-05-03T07:39:18.619Z,1.70
2018-05-03T07:39:57.548Z,1.20
2018-05-03T07:41:18.578Z,1.30
2018-05-03T07:41:57.575Z,1.40
2018-05-03T07:42:57.575Z,1.10
2018-05-03T07:44:18.589Z,1.50
2018-05-03T07:44:57.545Z,1.50
2018-05-03T07:46:18.546Z,1.50
2018-05-03T07:46:57.555Z,2.00
2018-05-03T07:47:57.529Z,1.50
2018-05-03T07:49:18.524Z,1.10
2018-05-03T07:49:57.520Z,1.80
2018-05-03T07:51:18.526Z,1.60
2018-05-03T07:51:57.523Z,1.30
2018-05-03T07:52:57.501Z,1.20
2018-05-03T07:54:18.508Z,1.50
2018-05-03T07:54:57.504Z,2.20
2018-05-03T07:56:18.511Z,1.50
2018-05-03T07:56:57.510Z,1.80
2018-05-03T07:57:57.513Z,1.40
2018-05-03T07:59:18.460Z,1.40
2018-05-03T07:59:57.447Z,1.50
2018-05-03T08:01:18.478Z,1.30
2018-05-03T08:01:57.436Z,1.00
2018-05-03T08:02:57.461Z,1.40
2018-05-03T08:04:18.469Z,1.40
2018-05-03T08:04:57.449Z,1.70
2018-05-03T08:06:18.452Z,1.50
2018-05-03T08:06:57.413Z,1.80
2018-05-03T08:07:57.416Z,1.10
2018-05-03T08:09:18.418Z,1.30
2018-05-03T08:09:57.420Z,1.60
2018-05-03T08:11:18.403Z,1.40
2018-05-03T08:11:57.404Z,1.40
2018-05-03T08:12:57.415Z,1.30
2018-05-03T08:14:18.356Z,2.00
2018-05-03T08:14:57.359Z,1.40
2018-05-03T08:16:18.379Z,1.40
2018-05-03T08:16:57.457Z,1.40
2018-05-03T08:17:57.401Z,1.70
2018-05-03T08:19:18.413Z,2.00
2018-05-03T08:19:57.361Z,1.60
2018-05-03T08:21:18.361Z,1.40
2018-05-03T08:21:57.391Z,1.40
2018-05-03T08:22:57.375Z,1.50
2018-05-03T08:24:18.345Z,1.30
2018-05-03T08:24:57.329Z,2.40
2018-05-03T08:26:18.367Z,1.70
2018-05-03T08:26:57.385Z,1.30
2018-05-03T08:27:57.326Z,1.20
2018-05-03T08:29:18.339Z,1.90
2018-05-03T08:29:57.299Z,1.30
2018-05-03T08:31:18.330Z,1.90
2018-05-03T08:31:57.299Z,1.60
2018-05-03T08:32:57.330Z,1.20
2018-05-03T08:34:18.319Z,1.30
2018-05-03T08:34:57.319Z,1.50
2018-05-03T08:36:18.310Z,1.30
2018-05-03T08:36:57.285Z,1.60
2018-05-03T08:37:57.286Z,1.20
2018-05-03T08:39:18.271Z,1.40
2018-05-03T08:39:57.260Z,1.20
2018-05-03T08:41:18.225Z,1.40
2018-05-03T08:41:57.254Z,1.30
2018-05-03T08:42:57.266Z,1.60
2018-05-03T08:44:18.262Z,1.40
2018-05-03T08:44:57.259Z,1.60
2018-05-03T08:46:18.263Z,1.90
2018-05-03T08:46:57.235Z,2.00
2018-05-03T08:47:57.200Z,1.40
2018-05-03T08:49:18.237Z,1.50
2018-05-03T08:49:57.211Z,1.50
2018-05-03T08:51:18.256Z,1.90
2018-05-03T08:51:57.245Z,1.30
2018-05-03T08:52:57.203Z,1.30
2018-05-03T08:54:18.191Z,1.50
2018-05-03T08:54:57.197Z,1.20
2018-05-03T08:56:18.189Z,1.30
2018-05-03T08:56:57.200Z,1.60
2018-05-03T08:57:57.167Z,1.50
2018-05-03T08:59:18.276Z,1.50
2018-05-03T08:59:57.183Z,1.50
2018-05-03T09:01:18.213Z,1.30
2018-05-03T09:01:57.174Z,1.60
2018-05-03T09:02:57.109Z,1.40
2018-05-03T09:04:18.141Z,1.60
2018-05-03T09:04:57.133Z,1.30
2018-05-03T09:06:18.131Z,1.30
2018-05-03T09:06:57.116Z,1.30
2018-05-03T09:07:57.129Z,1.50
2018-05-03T09:09:18.125Z,1.60
2018-05-03T09:09:57.101Z,1.70
2018-05-03T09:11:18.119Z,2.10
2018-05-03T09:11:57.141Z,1.70
2018-05-03T09:12:57.106Z,1.40
2018-05-03T09:14:18.106Z,1.80
2018-05-03T09:14:57.105Z,1.30
2018-05-03T09:16:18.092Z,1.70
2018-05-03T09:16:57.095Z,1.80
2018-05-03T09:17:57.082Z,1.20
2018-05-03T09:19:18.089Z,1.90
2018-05-03T09:19:57.081Z,1.90
2018-05-03T09:21:18.064Z,1.60
2018-05-03T09:21:57.057Z,1.70
2018-05-03T09:22:57.076Z,1.30
2018-05-03T09:24:18.047Z,2.10
2018-05-03T09:24:57.055Z,1.50
2018-05-03T09:26:18.030Z,1.50
2018-05-03T09:26:57.066Z,1.40
2018-05-03T09:27:57.042Z,1.40
2018-05-03T09:29:18.040Z,1.60
2018-05-03T09:29:56.993Z,1.40
2018-05-03T09:31:18.007Z,1.30
2018-05-03T09:31:56.992Z,1.40
2018-05-03T09:32:57.019Z,1.60
2018-05-03T09:34:17.977Z,1.50
2018-05-03T09:34:56.986Z,1.30
2018-05-03T09:36:18.006Z,1.30
2018-05-03T09:36:56.980Z,1.90
2018-05-03T09:37:56.964Z,1.80
2018-05-03T09:39:17.995Z,1.60
2018-05-03T09:39:56.967Z,1.40
2018-05-03T09:41:17.999Z,1.30
2018-05-03T09:41:56.982Z,1.40
2018-05-03T09:42:56.952Z,2.20
2018-05-03T09:44:17.945Z,1.50
2018-05-03T09:44:56.946Z,1.70
2018-05-03T09:46:17.982Z,1.40
2018-05-03T09:46:56.963Z,1.60
2018-05-03T09:47:56.942Z,1.60
2018-05-03T09:49:17.923Z,1.60
2018-05-03T09:49:56.905Z,1.70
2018-05-03T09:51:17.916Z,1.50
2018-05-03T09:51:56.900Z,1.50
2018-05-03T09:52:56.931Z,1.30
2018-05-03T09:54:17.903Z,1.90
2018-05-03T09:54:56.901Z,1.70
2018-05-03T09:56:17.882Z,1.90
2018-05-03T09:56:56.953Z,1.20
2018-05-03T09:57:56.872Z,1.80
2018-05-03T09:59:17.909Z,1.80
2018-05-03T09:59:56.846Z,1.50
2018-05-03T10:01:17.893Z,1.40
2018-05-03T10:01:56.837Z,1.70
2018-05-03T10:02:56.883Z,1.50
2018-05-03T10:04:17.847Z,1.40
2018-05-03T10:04:56.868Z,1.80
2018-05-03T10:06:17.878Z,1.60
2018-05-03T10:06:56.830Z,1.70
2018-05-03T10:07:56.815Z,1.40
2018-05-03T10:09:17.821Z,1.90
2018-05-03T10:09:56.801Z,2.00
2018-05-03T10:11:17.835Z,1.90
2018-05-03T10:11:56.806Z,1.80
2018-05-03T10:12:56.792Z,1.50
2018-05-03T10:14:17.788Z,1.50
2018-05-03T10:14:56.786Z,1.60
2018-05-03T10:16:17.786Z,1.80
2018-05-03T10:16:56.811Z,1.60
2018-05-03T10:17:56.771Z,1.40
2018-05-03T10:19:17.773Z,1.50
2018-05-03T10:19:56.757Z,1.40
2018-05-03T10:21:17.814Z,1.60
2018-05-03T10:21:56.762Z,1.90
2018-05-03T10:22:56.758Z,1.70
2018-05-03T10:24:17.747Z,1.40
2018-05-03T10:24:56.743Z,1.60
2018-05-03T10:26:17.731Z,1.40
2018-05-03T10:26:56.722Z,1.80
2018-05-03T10:27:56.752Z,1.60
2018-05-03T10:29:17.757Z,1.40
2018-05-03T10:29:56.723Z,1.30
2018-05-03T10:31:17.761Z,1.60
2018-05-03T10:31:56.726Z,1.20
2018-05-03T10:32:56.703Z,1.70
2018-05-03T10:34:17.707Z,1.50
2018-05-03T10:34:56.697Z,1.90
2018-05-03T10:36:17.734Z,1.40
2018-05-03T10:36:56.674Z,1.50
2018-05-03T10:37:56.689Z,1.60
2018-05-03T10:39:17.689Z,1.60
2018-05-03T10:39:56.654Z,1.50
2018-05-03T10:41:17.660Z,1.50
2018-05-03T10:41:56.701Z,1.50
2018-05-03T10:42:56.670Z,1.40
2018-05-03T10:44:17.659Z,1.10
2018-05-03T10:44:56.646Z,1.70
2018-05-03T10:46:17.666Z,1.90
2018-05-03T10:46:56.628Z,1.60
2018-05-03T10:47:56.613Z,1.70
2018-05-03T10:49:17.643Z,1.60
2018-05-03T10:49:56.604Z,1.50
2018-05-03T10:51:17.602Z,1.70
2018-05-03T10:51:56.638Z,1.50
2018-05-03T10:52:56.598Z,1.20
2018-05-03T10:54:17.629Z,1.80
2018-05-03T10:54:56.588Z,1.30
2018-05-03T10:56:17.598Z,1.30
2018-05-03T10:56:56.567Z,1.70
2018-05-03T10:57:56.578Z,1.40
2018-05-03T10:59:17.568Z,1.60
2018-05-03T10:59:56.570Z,1.40
2018-05-03T11:01:17.573Z,1.90
2018-05-03T11:01:56.558Z,1.70
2018-05-03T11:02:56.589Z,1.30
2018-05-03T11:04:17.561Z,2.00
2018-05-03T11:04:56.554Z,1.20
2018-05-03T11:06:17.597Z,1.30
2018-05-03T11:06:56.524Z,1.70
2018-05-03T11:07:56.569Z,1.60
2018-05-03T11:09:17.580Z,1.20
2018-05-03T11:09:56.478Z,1.10
2018-05-03T11:11:17.545Z,1.20
2018-05-03T11:11:56.528Z,1.50
2018-05-03T11:12:56.530Z,1.60
2018-05-03T11:14:17.489Z,1.50
2018-05-03T11:14:56.513Z,1.60
2018-05-03T11:16:17.491Z,1.30
2018-05-03T11:16:56.482Z,1.70
2018-05-03T11:17:56.497Z,1.40
2018-05-03T11:19:17.484Z,1.70
2018-05-03T11:19:56.478Z,1.50
2018-05-03T11:21:17.458Z,1.20
2018-05-03T11:21:56.487Z,1.30
2018-05-03T11:22:56.476Z,1.40
2018-05-03T11:24:17.538Z,1.40
2018-05-03T11:24:56.442Z,1.20
2018-05-03T11:26:17.463Z,1.60
2018-05-03T11:26:56.451Z,1.30
2018-05-03T11:27:56.417Z,1.30
2018-05-03T11:29:17.447Z,1.30
2018-05-03T11:29:56.436Z,1.20
2018-05-03T11:31:17.467Z,1.40
2018-05-03T11:31:56.408Z,1.50
2018-05-03T11:32:56.443Z,1.60
2018-05-03T11:34:17.398Z,1.40
2018-05-03T11:34:56.413Z,1.50
2018-05-03T11:36:17.368Z,1.20
2018-05-03T11:36:56.425Z,1.30
2018-05-03T11:37:56.380Z,1.40
2018-05-03T11:39:17.413Z,1.80
2018-05-03T11:39:56.384Z,1.30
2018-05-03T11:41:17.434Z,1.60
2018-05-03T11:41:56.353Z,1.20
2018-05-03T11:42:56.354Z,1.20
2018-05-03T11:44:17.370Z,1.30
2018-05-03T11:44:56.342Z,1.60
2018-05-03T11:46:17.372Z,1.80
2018-05-03T11:46:56.377Z,1.40
2018-05-03T11:47:56.382Z,1.30
2018-05-03T11:49:17.361Z,1.20
2018-05-03T11:49:56.329Z,1.80
2018-05-03T11:51:17.301Z,1.40
2018-05-03T11:51:56.304Z,1.20
2018-05-03T11:52:56.339Z,1.30
2018-05-03T11:54:17.288Z,1.60
2018-05-03T11:54:56.314Z,1.60
2018-05-03T11:56:17.327Z,1.60
2018-05-03T11:56:56.330Z,1.60
2018-05-03T11:57:56.304Z,2.00
2018-05-03T11:59:17.331Z,1.50
2018-05-03T11:59:56.269Z,1.80
2018-05-03T12:01:17.292Z,1.60
2018-05-03T12:01:56.259Z,1.30
2018-05-03T12:02:56.253Z,1.30
2018-05-03T12:04:17.262Z,1.40
2018-05-03T12:04:56.272Z,1.70
2018-05-03T12:06:17.290Z,1.30
2018-05-03T12:06:56.249Z,1.40
2018-05-03T12:07:56.247Z,1.30
2018-05-03T12:09:17.286Z,1.30
2018-05-03T12:09:56.217Z,1.50
2018-05-03T12:11:17.245Z,1.60
2018-05-03T12:11:56.234Z,1.70
2018-05-03T12:12:56.238Z,1.40
2018-05-03T12:14:17.214Z,1.30
2018-05-03T12:14:56.202Z,1.20
2018-05-03T12:16:17.208Z,1.30
2018-05-03T12:16:56.217Z,1.20
2018-05-03T12:17:56.217Z,1.50
2018-05-03T12:19:17.198Z,1.30
2018-05-03T12:19:56.189Z,1.20
2018-05-03T12:21:17.236Z,1.70
2018-05-03T12:21:56.178Z,1.40
2018-05-03T12:22:56.208Z,1.50
2018-05-03T12:24:17.245Z,1.50
2018-05-03T12:24:56.179Z,1.20
2018-05-03T12:26:17.187Z,1.10
2018-05-03T12:26:56.162Z,1.60
2018-05-03T12:27:56.152Z,2.00
2018-05-03T12:29:17.156Z,1.40
2018-05-03T12:29:56.159Z,1.30
2018-05-03T12:31:17.187Z,1.30
2018-05-03T12:31:56.123Z,1.40
2018-05-03T12:32:56.114Z,1.30
2018-05-03T12:34:17.162Z,1.40
2018-05-03T12:34:56.143Z,1.60
2018-05-03T12:36:17.087Z,1.50
2018-05-03T12:36:56.093Z,1.40
2018-05-03T12:37:56.087Z,1.60
2018-05-03T12:39:17.098Z,2.00
2018-05-03T12:39:56.090Z,1.30
2018-05-03T12:41:17.086Z,1.50
2018-05-03T12:41:56.095Z,1.20
2018-05-03T12:42:56.088Z,1.00
2018-05-03T12:44:17.075Z,1.40
2018-05-03T12:44:56.038Z,1.40
2018-05-03T12:46:17.069Z,1.40
2018-05-03T12:46:56.104Z,1.60
2018-05-03T12:47:56.039Z,1.60
2018-05-03T12:49:17.089Z,1.30
2018-05-03T12:49:56.061Z,1.20
2018-05-03T12:51:17.113Z,1.80
2018-05-03T12:51:56.052Z,1.40
2018-05-03T12:52:56.016Z,1.60
2018-05-03T12:54:17.042Z,1.50
2018-05-03T12:54:56.036Z,2.30
2018-05-03T12:56:17.025Z,2.10
2018-05-03T12:56:55.987Z,1.40
2018-05-03T12:57:56.027Z,3.40
2018-05-03T12:59:16.985Z,1.90
2018-05-03T12:59:55.995Z,2.30
2018-05-03T13:01:16.986Z,2.20
2018-05-03T13:01:55.966Z,1.70
2018-05-03T13:02:56.018Z,1.40
2018-05-03T13:04:16.999Z,3.20
2018-05-03T13:04:56.019Z,3.30
2018-05-03T13:06:16.988Z,2.30
2018-05-03T13:06:56.019Z,3.50
2018-05-03T13:07:55.966Z,2.00
2018-05-03T13:09:16.972Z,2.80
2018-05-03T13:09:55.928Z,1.80
2018-05-03T13:11:16.954Z,1.80
2018-05-03T13:11:55.934Z,1.70
2018-05-03T13:12:55.938Z,4.00
2018-05-03T13:14:17.078Z,2.80
2018-05-03T13:14:55.910Z,2.70
2018-05-03T13:16:16.923Z,3.50
2018-05-03T13:16:55.872Z,2.80
2018-05-03T13:17:55.910Z,3.30